createdAt,value
2024-05-09T00:00:22.264Z,99.99
2024-05-09T00:01:16.096Z,99.99
2024-05-09T00:02:16.071Z,99.99
2024-05-09T00:03:16.091Z,99.99
2024-05-09T00:04:16.126Z,99.99
2024-05-09T00:05:16.158Z,99.99
2024-05-09T00:06:16.233Z,99.99
2024-05-09T00:07:16.145Z,99.99
2024-05-09T00:08:16.249Z,99.99
2024-05-09T00:09:16.161Z,99.99
2024-05-09T00:10:25.124Z,99.99
2024-05-09T00:11:16.259Z,99.99
2024-05-09T00:12:16.278Z,99.99
2024-05-09T00:13:16.200Z,99.99
2024-05-09T00:14:16.230Z,99.99
2024-05-09T00:15:16.210Z,99.99
2024-05-09T00:16:16.229Z,99.99
2024-05-09T00:17:16.457Z,99.99
2024-05-09T00:18:16.461Z,99.99
2024-05-09T00:19:16.511Z,99.99
2024-05-09T00:20:20.650Z,99.99
2024-05-09T00:21:16.438Z,99.99
2024-05-09T00:22:16.343Z,99.99
2024-05-09T00:23:16.427Z,99.99
2024-05-09T00:24:16.344Z,99.99
2024-05-09T00:25:16.352Z,99.99
2024-05-09T00:26:16.399Z,99.99
2024-05-09T00:27:16.421Z,99.99
2024-05-09T00:28:16.403Z,99.99
2024-05-09T00:29:16.618Z,99.99
2024-05-09T00:30:24.242Z,99.99
2024-05-09T00:31:16.446Z,99.99
2024-05-09T00:32:16.540Z,99.99
2024-05-09T00:33:16.768Z,99.99
2024-05-09T00:34:16.564Z,99.99
2024-05-09T00:35:16.533Z,99.99
2024-05-09T00:36:16.536Z,99.99
2024-05-09T00:37:16.551Z,99.99
2024-05-09T00:38:16.594Z,99.99
2024-05-09T00:39:16.562Z,99.99
2024-05-09T00:40:26.438Z,99.99
2024-05-09T00:41:19.675Z,99.99
2024-05-09T00:42:16.621Z,99.99
2024-05-09T00:43:16.631Z,99.99
2024-05-09T00:44:16.707Z,99.99
2024-05-09T00:45:16.661Z,99.99
2024-05-09T00:46:16.706Z,99.99
2024-05-09T00:47:16.756Z,99.99
2024-05-09T00:48:19.742Z,99.99
2024-05-09T00:49:16.861Z,99.99
2024-05-09T00:50:22.746Z,99.99
2024-05-09T00:51:16.889Z,99.99
2024-05-09T00:52:16.805Z,99.99
2024-05-09T00:53:16.831Z,99.99
2024-05-09T00:54:16.819Z,99.99
2024-05-09T00:55:16.829Z,99.99
2024-05-09T00:56:16.880Z,99.99
2024-05-09T00:57:16.840Z,99.99
2024-05-09T00:58:16.875Z,99.99
2024-05-09T00:59:16.935Z,99.99
2024-05-09T01:00:26.201Z,99.99
2024-05-09T01:01:16.975Z,99.99
2024-05-09T01:02:17.107Z,99.99
2024-05-09T01:03:17.252Z,99.99
2024-05-09T01:04:16.999Z,99.99
2024-05-09T01:05:17.058Z,99.99
2024-05-09T01:06:16.969Z,99.99
2024-05-09T01:07:16.980Z,99.99
2024-05-09T01:08:17.028Z,99.99
2024-05-09T01:09:17.029Z,99.99
2024-05-09T01:10:21.327Z,99.99
2024-05-09T01:11:17.154Z,99.99
2024-05-09T01:12:17.190Z,99.99
2024-05-09T01:13:17.062Z,99.99
2024-05-09T01:14:17.218Z,99.99
2024-05-09T01:15:17.085Z,99.99
2024-05-09T01:16:17.106Z,99.99
2024-05-09T01:17:17.192Z,99.99
2024-05-09T01:18:17.271Z,99.99
2024-05-09T01:19:17.349Z,99.99
2024-05-09T01:20:22.874Z,99.99
2024-05-09T01:21:17.368Z,99.99
2024-05-09T01:22:17.200Z,99.99
2024-05-09T01:23:17.278Z,99.99
2024-05-09T01:24:17.226Z,99.99
2024-05-09T01:25:17.235Z,99.99
2024-05-09T01:26:17.315Z,99.99
2024-05-09T01:27:17.266Z,99.99
2024-05-09T01:28:17.300Z,99.99
2024-05-09T01:29:17.331Z,99.99
2024-05-09T01:30:21.350Z,99.99
2024-05-09T01:31:17.315Z,99.99
2024-05-09T01:32:17.449Z,99.99
2024-05-09T01:33:17.476Z,99.99
2024-05-09T01:34:17.447Z,99.99
2024-05-09T01:35:17.421Z,99.99
2024-05-09T01:36:17.389Z,99.99
2024-05-09T01:37:17.423Z,99.99
2024-05-09T01:38:17.784Z,99.99
2024-05-09T01:39:17.440Z,99.99
2024-05-09T01:40:22.104Z,99.99
2024-05-09T01:41:17.521Z,99.99
2024-05-09T01:42:17.508Z,99.99
2024-05-09T01:43:17.500Z,99.99
2024-05-09T01:44:17.551Z,99.99
2024-05-09T01:45:23.536Z,99.99
2024-05-09T01:46:17.566Z,99.99
2024-05-09T01:47:17.729Z,99.99
2024-05-09T01:48:17.764Z,99.99
2024-05-09T01:49:17.800Z,99.99
2024-05-09T01:50:22.493Z,99.99
2024-05-09T01:51:17.704Z,99.99
2024-05-09T01:52:17.652Z,99.99
2024-05-09T01:53:17.723Z,99.99
2024-05-09T01:54:17.670Z,99.99
2024-05-09T01:55:17.677Z,99.99
2024-05-09T01:57:17.710Z,99.99
2024-05-09T01:58:17.748Z,99.99
2024-05-09T01:59:48.071Z,99.99
2024-05-09T02:00:26.256Z,99.99
2024-05-09T02:01:17.830Z,99.99
2024-05-09T02:02:17.980Z,99.99
2024-05-09T02:03:18.407Z,99.99
2024-05-09T02:04:18.058Z,99.99
2024-05-09T02:05:18.040Z,99.99
2024-05-09T02:06:17.913Z,99.99
2024-05-09T02:07:17.859Z,99.99
2024-05-09T02:08:18.522Z,99.99
2024-05-09T02:09:17.887Z,99.99
2024-05-09T02:10:23.512Z,99.99
2024-05-09T02:11:17.994Z,99.99
2024-05-09T02:12:18.069Z,99.99
2024-05-09T02:13:17.996Z,99.99
2024-05-09T02:14:18.042Z,99.99
2024-05-09T02:15:17.982Z,99.99
2024-05-09T02:16:18.003Z,99.99
2024-05-09T02:17:18.089Z,99.99
2024-05-09T02:18:18.162Z,99.99
2024-05-09T02:19:18.374Z,99.99
2024-05-09T02:20:27.159Z,99.99
2024-05-09T02:21:18.073Z,99.99
2024-05-09T02:22:18.088Z,99.99
2024-05-09T02:23:18.253Z,99.99
2024-05-09T02:24:18.112Z,99.99
2024-05-09T02:25:18.119Z,99.99
2024-05-09T02:26:18.230Z,99.99
2024-05-09T02:27:18.156Z,99.99
2024-05-09T02:28:18.195Z,99.99
2024-05-09T02:29:18.231Z,99.99
2024-05-09T02:30:25.966Z,99.99
2024-05-09T02:31:18.222Z,99.99
2024-05-09T02:32:18.311Z,99.99
2024-05-09T02:33:18.382Z,99.99
2024-05-09T02:34:18.322Z,99.99
2024-05-09T02:35:18.300Z,99.99
2024-05-09T02:36:18.279Z,99.99
2024-05-09T02:37:18.299Z,99.99
2024-05-09T02:38:18.390Z,99.99
2024-05-09T02:39:18.323Z,99.99
2024-05-09T02:40:25.409Z,99.99
2024-05-09T02:41:18.410Z,99.99
2024-05-09T02:42:18.372Z,99.99
2024-05-09T02:43:18.420Z,99.99
2024-05-09T02:44:18.483Z,99.99
2024-05-09T02:45:18.414Z,99.99
2024-05-09T02:46:18.503Z,99.99
2024-05-09T02:47:18.549Z,99.99
2024-05-09T02:48:18.662Z,99.99
2024-05-09T02:49:18.614Z,99.99
2024-05-09T02:50:26.590Z,99.99
2024-05-09T02:51:18.537Z,99.99
2024-05-09T02:52:18.533Z,99.99
2024-05-09T02:53:18.639Z,99.99
2024-05-09T02:54:18.570Z,99.99
2024-05-09T02:55:18.561Z,99.99
2024-05-09T02:56:18.641Z,99.99
2024-05-09T02:57:18.598Z,99.99
2024-05-09T02:58:18.652Z,99.99
2024-05-09T02:59:18.761Z,99.99
2024-05-09T03:00:22.962Z,99.99
2024-05-09T03:01:18.688Z,99.99
2024-05-09T03:02:18.768Z,99.99
2024-05-09T03:03:18.979Z,99.99
2024-05-09T03:04:18.758Z,99.99
2024-05-09T03:05:18.910Z,99.99
2024-05-09T03:06:18.741Z,99.99
2024-05-09T03:07:20.239Z,99.99
2024-05-09T03:08:18.789Z,99.99
2024-05-09T03:09:18.772Z,99.99
2024-05-09T03:10:25.376Z,99.99
2024-05-09T03:11:18.847Z,99.99
2024-05-09T03:12:18.938Z,99.99
2024-05-09T03:13:18.826Z,99.99
2024-05-09T03:14:18.899Z,99.99
2024-05-09T03:15:18.855Z,99.99
2024-05-09T03:16:18.876Z,99.99
2024-05-09T03:17:18.989Z,99.99
2024-05-09T03:18:19.016Z,99.99
2024-05-09T03:19:19.051Z,99.99
2024-05-09T03:20:23.894Z,99.99
2024-05-09T03:21:18.987Z,99.99
2024-05-09T03:22:19.001Z,99.99
2024-05-09T03:23:19.013Z,99.99
2024-05-09T03:24:18.995Z,99.99
2024-05-09T03:25:19.006Z,99.99
2024-05-09T03:26:19.083Z,99.99
2024-05-09T03:27:19.053Z,99.99
2024-05-09T03:28:19.048Z,99.99
2024-05-09T03:29:19.151Z,99.99
2024-05-09T03:30:26.168Z,99.99
2024-05-09T03:31:19.078Z,99.99
2024-05-09T03:32:19.244Z,99.99
2024-05-09T03:33:20.447Z,99.99
2024-05-09T03:34:19.223Z,99.99
2024-05-09T03:35:19.253Z,99.99
2024-05-09T03:36:19.163Z,99.99
2024-05-09T03:37:19.172Z,99.99
2024-05-09T03:38:19.231Z,99.99
2024-05-09T03:39:19.191Z,99.99
2024-05-09T03:40:23.698Z,99.99
2024-05-09T03:41:19.327Z,99.99
2024-05-09T03:42:19.260Z,99.99
2024-05-09T03:43:19.527Z,99.99
2024-05-09T03:44:19.326Z,99.99
2024-05-09T03:45:19.291Z,99.99
2024-05-09T03:46:19.341Z,99.99
2024-05-09T03:47:19.375Z,99.99
2024-05-09T03:48:19.686Z,99.99
2024-05-09T03:49:19.611Z,99.99
2024-05-09T03:50:26.132Z,99.99
2024-05-09T03:51:19.417Z,99.99
2024-05-09T03:52:19.382Z,99.99
2024-05-09T03:53:19.446Z,99.99
2024-05-09T03:54:19.408Z,99.99
2024-05-09T03:55:19.428Z,99.99
2024-05-09T03:56:19.532Z,99.99
2024-05-09T03:57:19.445Z,99.99
2024-05-09T03:58:19.460Z,99.99
2024-05-09T03:59:19.529Z,99.99
2024-05-09T04:00:26.562Z,99.99
2024-05-09T04:01:19.624Z,99.99
2024-05-09T04:02:19.594Z,99.99
2024-05-09T04:03:19.709Z,99.99
2024-05-09T04:04:19.585Z,99.99
2024-05-09T04:05:19.600Z,99.99
2024-05-09T04:06:19.744Z,99.99
2024-05-09T04:07:19.597Z,99.99
2024-05-09T04:08:19.643Z,99.99
2024-05-09T04:09:19.612Z,99.99
2024-05-09T04:10:27.718Z,99.99
2024-05-09T04:11:19.839Z,99.99
2024-05-09T04:12:19.697Z,99.99
2024-05-09T04:13:19.677Z,99.99
2024-05-09T04:14:19.715Z,99.99
2024-05-09T04:15:19.699Z,99.99
2024-05-09T04:16:19.736Z,99.99
2024-05-09T04:17:19.765Z,99.99
2024-05-09T04:18:19.847Z,99.99
2024-05-09T04:19:19.998Z,99.99
2024-05-09T04:20:29.279Z,99.99
2024-05-09T04:21:19.823Z,99.99
2024-05-09T04:22:19.818Z,99.99
2024-05-09T04:23:19.870Z,99.99
2024-05-09T04:24:19.843Z,99.99
2024-05-09T04:25:19.854Z,99.99
2024-05-09T04:26:19.934Z,99.99
2024-05-09T04:27:19.878Z,99.99
2024-05-09T04:28:19.900Z,99.99
2024-05-09T04:29:19.985Z,99.99
2024-05-09T04:30:26.474Z,99.99
2024-05-09T04:31:19.968Z,99.99
2024-05-09T04:32:20.044Z,99.99
2024-05-09T04:33:20.403Z,99.99
2024-05-09T04:34:20.071Z,99.99
2024-05-09T04:35:20.086Z,99.99
2024-05-09T04:36:20.023Z,99.99
2024-05-09T04:37:20.029Z,99.99
2024-05-09T04:38:20.133Z,99.99
2024-05-09T04:39:20.058Z,99.99
2024-05-09T04:40:28.121Z,99.99
2024-05-09T04:41:20.194Z,99.99
2024-05-09T04:42:20.113Z,99.99
2024-05-09T04:43:20.109Z,99.99
2024-05-09T04:44:20.239Z,99.99
2024-05-09T04:45:20.147Z,99.99
2024-05-09T04:46:20.162Z,99.99
2024-05-09T04:47:20.320Z,99.99
2024-05-09T04:48:20.334Z,99.99
2024-05-09T04:49:20.288Z,99.99
2024-05-09T04:50:29.347Z,99.99
2024-05-09T04:51:20.222Z,99.99
2024-05-09T04:52:20.239Z,99.99
2024-05-09T04:53:20.268Z,99.99
2024-05-09T04:55:20.309Z,99.99
2024-05-09T04:56:20.340Z,99.99
2024-05-09T04:57:20.320Z,99.99
2024-05-09T04:58:20.343Z,99.99
2024-05-09T04:59:20.399Z,99.99
2024-05-09T05:00:28.501Z,99.99
2024-05-09T05:01:20.391Z,99.99
2024-05-09T05:02:20.425Z,99.99
2024-05-09T05:03:20.532Z,99.99
2024-05-09T05:04:20.512Z,99.99
2024-05-09T05:05:20.512Z,99.99
2024-05-09T05:06:20.451Z,99.99
2024-05-09T05:07:20.462Z,99.99
2024-05-09T05:08:20.511Z,99.99
2024-05-09T05:09:20.491Z,99.99
2024-05-09T05:10:25.516Z,99.99
2024-05-09T05:11:20.591Z,99.99
2024-05-09T05:12:20.639Z,99.99
2024-05-09T05:13:21.893Z,99.99
2024-05-09T05:14:20.704Z,99.99
2024-05-09T05:15:20.609Z,99.99
2024-05-09T05:16:20.604Z,99.99
2024-05-09T05:17:20.760Z,99.99
2024-05-09T05:18:20.743Z,99.99
2024-05-09T05:19:20.829Z,99.99
2024-05-09T05:20:27.495Z,99.99
2024-05-09T05:21:20.810Z,99.99
2024-05-09T05:22:20.692Z,99.99
2024-05-09T05:23:20.790Z,99.99
2024-05-09T05:24:20.727Z,99.99
2024-05-09T05:25:20.762Z,99.99
2024-05-09T05:26:20.816Z,99.99
2024-05-09T05:27:20.767Z,99.99
2024-05-09T05:28:20.786Z,99.99
2024-05-09T05:29:21.137Z,99.99
2024-05-09T05:30:25.328Z,99.99
2024-05-09T05:31:20.860Z,99.99
2024-05-09T05:32:21.013Z,99.99
2024-05-09T05:33:21.036Z,99.99
2024-05-09T05:34:20.878Z,99.99
2024-05-09T05:35:21.022Z,99.99
2024-05-09T05:36:20.902Z,99.99
2024-05-09T05:37:20.926Z,99.99
2024-05-09T05:38:24.856Z,99.99
2024-05-09T05:39:20.957Z,99.99
2024-05-09T05:40:28.296Z,99.99
2024-05-09T05:41:21.053Z,99.99
2024-05-09T05:42:21.002Z,99.99
2024-05-09T05:43:21.009Z,99.99
2024-05-09T05:44:21.077Z,99.99
2024-05-09T05:45:21.051Z,99.99
2024-05-09T05:46:21.056Z,99.99
2024-05-09T05:47:21.141Z,99.99
2024-05-09T05:48:21.283Z,99.99
2024-05-09T05:49:21.319Z,99.99
2024-05-09T05:50:27.870Z,99.99
2024-05-09T05:51:21.304Z,99.99
2024-05-09T05:52:21.166Z,99.99
2024-05-09T05:53:21.214Z,99.99
2024-05-09T05:54:21.172Z,99.99
2024-05-09T05:55:21.214Z,99.99
2024-05-09T05:56:21.241Z,99.99
2024-05-09T05:57:21.235Z,99.99
2024-05-09T05:58:21.229Z,99.99
2024-05-09T05:59:21.289Z,99.99
2024-05-09T06:00:29.116Z,99.99
2024-05-09T06:01:21.334Z,99.99
2024-05-09T06:02:21.349Z,99.99
2024-05-09T06:03:21.366Z,99.99
2024-05-09T06:04:21.382Z,99.99
2024-05-09T06:05:21.422Z,99.99
2024-05-09T06:06:21.361Z,99.99
2024-05-09T06:07:21.391Z,99.99
2024-05-09T06:08:21.616Z,99.99
2024-05-09T06:09:21.449Z,99.99
2024-05-09T06:10:25.935Z,99.68
2024-05-09T06:11:21.532Z,99.88
2024-05-09T06:12:21.531Z,99.99
2024-05-09T06:13:21.464Z,99.99
2024-05-09T06:14:21.514Z,99.99
2024-05-09T06:15:21.495Z,99.99
2024-05-09T06:16:21.500Z,99.43
2024-05-09T06:17:21.772Z,99.99
2024-05-09T06:18:22.019Z,99.99
2024-05-09T06:19:21.700Z,99.63
2024-05-09T06:20:31.096Z,99.63
2024-05-09T06:21:21.727Z,99.99
2024-05-09T06:22:21.615Z,99.99
2024-05-09T06:23:21.749Z,99.99
2024-05-09T06:24:21.660Z,99.07
2024-05-09T06:25:21.683Z,99.07
2024-05-09T06:26:21.717Z,99.02
2024-05-09T06:27:21.674Z,98.52
2024-05-09T06:28:21.699Z,98.31
2024-05-09T06:29:21.747Z,98.31
2024-05-09T06:30:29.914Z,97.90
2024-05-09T06:31:21.735Z,97.45
2024-05-09T06:32:21.969Z,97.96
2024-05-09T06:33:21.944Z,97.14
2024-05-09T06:34:21.888Z,97.24
2024-05-09T06:35:21.835Z,96.63
2024-05-09T06:36:21.795Z,96.63
2024-05-09T06:37:21.827Z,96.33
2024-05-09T06:38:21.883Z,95.81
2024-05-09T06:39:21.861Z,96.22
2024-05-09T06:40:25.869Z,95.81
2024-05-09T06:41:21.907Z,96.73
2024-05-09T06:42:21.895Z,97.55
2024-05-09T06:43:21.936Z,96.43
2024-05-09T06:44:21.961Z,97.65
2024-05-09T06:45:22.024Z,97.45
2024-05-09T06:46:21.975Z,97.09
2024-05-09T06:47:22.154Z,96.18
2024-05-09T06:48:22.805Z,95.06
2024-05-09T06:49:22.286Z,94.70
2024-05-09T06:50:24.431Z,95.51
2024-05-09T06:51:22.082Z,96.38
2024-05-09T06:52:22.091Z,96.28
2024-05-09T06:53:22.171Z,95.77
2024-05-09T06:54:22.094Z,96.08
2024-05-09T06:55:22.130Z,95.26
2024-05-09T06:56:22.152Z,95.77
2024-05-09T06:57:22.194Z,97.09
2024-05-09T06:58:22.195Z,94.65
2024-05-09T06:59:22.316Z,94.91
2024-05-09T07:00:30.203Z,95.12
2024-05-09T07:01:22.219Z,94.05
2024-05-09T07:02:22.344Z,94.97
2024-05-09T07:03:22.416Z,93.64
2024-05-09T07:04:22.372Z,93.60
2024-05-09T07:05:22.490Z,92.58
2024-05-09T07:06:22.290Z,92.27
2024-05-09T07:07:22.322Z,93.60
2024-05-09T07:08:22.409Z,90.95
2024-05-09T07:09:22.328Z,91.26
2024-05-09T07:10:28.887Z,92.44
2024-05-09T07:11:22.543Z,91.93
2024-05-09T07:12:22.459Z,92.03
2024-05-09T07:13:22.399Z,91.11
2024-05-09T07:14:22.631Z,91.72
2024-05-09T07:15:22.436Z,92.03
2024-05-09T07:16:22.441Z,91.83
2024-05-09T07:17:22.657Z,89.89
2024-05-09T07:18:22.729Z,90.50
2024-05-09T07:19:22.559Z,89.83
2024-05-09T07:20:31.773Z,90.55
2024-05-09T07:21:22.582Z,91.22
2024-05-09T07:22:22.564Z,91.62
2024-05-09T07:23:22.592Z,91.22
2024-05-09T07:24:22.570Z,90.50
2024-05-09T07:25:22.591Z,90.20
2024-05-09T07:26:22.637Z,89.63
2024-05-09T07:27:22.651Z,91.22
2024-05-09T07:28:22.633Z,90.70
2024-05-09T07:29:22.733Z,89.48
2024-05-09T07:30:27.773Z,89.99
2024-05-09T07:31:22.692Z,90.09
2024-05-09T07:32:22.861Z,88.67
2024-05-09T07:33:24.124Z,89.07
2024-05-09T07:34:22.813Z,89.64
2024-05-09T07:35:22.772Z,89.75
2024-05-09T07:36:22.755Z,89.54
2024-05-09T07:37:22.793Z,89.75
2024-05-09T07:38:22.823Z,90.36
2024-05-09T07:39:22.827Z,91.07
2024-05-09T07:40:32.312Z,91.03
2024-05-09T07:41:22.873Z,90.92
2024-05-09T07:42:22.874Z,89.34
2024-05-09T07:43:22.878Z,89.03
2024-05-09T07:44:22.893Z,89.14
2024-05-09T07:45:41.665Z,89.95
2024-05-09T07:47:17.259Z,89.40
2024-05-09T07:50:34.311Z,91.13
2024-05-09T07:53:32.464Z,91.33
2024-05-09T07:53:49.300Z,88.75
2024-05-09T07:54:00.446Z,89.56
2024-05-09T07:54:56.284Z,88.71
2024-05-09T07:55:56.747Z,89.01
2024-05-09T07:56:56.308Z,88.91
2024-05-09T07:57:56.052Z,87.32
2024-05-09T07:58:56.480Z,87.84
2024-05-09T07:59:56.001Z,88.85
2024-05-09T08:00:56.228Z,88.18
2024-05-09T08:01:56.232Z,89.09
2024-05-09T08:02:56.220Z,87.98
2024-05-09T08:03:56.362Z,87.20
2024-05-09T08:04:56.248Z,88.02
2024-05-09T08:05:56.146Z,89.00
2024-05-09T08:06:56.186Z,88.28
2024-05-09T08:07:56.141Z,87.77
2024-05-09T08:08:56.953Z,88.13
2024-05-09T08:09:56.257Z,89.05
2024-05-09T08:10:56.215Z,88.60
2024-05-09T08:11:56.285Z,86.07
2024-05-09T08:12:56.252Z,86.68
2024-05-09T08:13:56.225Z,87.65
2024-05-09T08:14:56.238Z,87.81
2024-05-09T08:15:56.390Z,87.00
2024-05-09T08:16:56.332Z,85.58
2024-05-09T08:17:56.652Z,86.29
2024-05-09T08:18:56.392Z,87.26
2024-05-09T08:19:56.317Z,83.91
2024-05-09T08:20:56.350Z,85.33
2024-05-09T08:21:56.364Z,84.22
2024-05-09T08:22:56.353Z,81.41
2024-05-09T08:23:56.364Z,82.73
2024-05-09T08:24:56.441Z,84.56
2024-05-09T08:25:56.422Z,83.61
2024-05-09T08:26:56.423Z,83.61
2024-05-09T08:27:56.454Z,83.40
2024-05-09T08:28:56.445Z,84.52
2024-05-09T08:29:56.523Z,85.44
2024-05-09T08:30:56.627Z,87.40
2024-05-09T08:31:56.631Z,87.10
2024-05-09T08:32:56.723Z,85.74
2024-05-09T08:33:56.713Z,83.95
2024-05-09T08:34:56.584Z,85.07
2024-05-09T08:35:56.569Z,84.16
2024-05-09T08:36:59.701Z,83.54
2024-05-09T08:37:56.723Z,86.19
2024-05-09T08:38:56.597Z,84.40
2024-05-09T08:39:56.760Z,85.72
2024-05-09T08:40:56.730Z,84.60
2024-05-09T08:41:56.652Z,84.44
2024-05-09T08:42:56.786Z,84.34
2024-05-09T08:43:56.677Z,84.64
2024-05-09T08:44:56.690Z,85.55
2024-05-09T08:45:56.839Z,85.05
2024-05-09T08:46:56.718Z,85.05
2024-05-09T08:47:56.870Z,86.07
2024-05-09T08:48:56.950Z,85.76
2024-05-09T08:49:56.896Z,85.35
2024-05-09T08:50:56.811Z,85.46
2024-05-09T08:51:56.819Z,85.31
2024-05-09T08:52:56.836Z,81.45
2024-05-09T08:53:56.827Z,81.56
2024-05-09T08:54:56.884Z,81.35
2024-05-09T08:55:56.891Z,80.44
2024-05-09T08:56:56.889Z,82.73
2024-05-09T08:57:56.923Z,83.85
2024-05-09T08:58:56.918Z,79.96
2024-05-09T08:59:56.922Z,80.36
2024-05-09T09:00:57.090Z,80.77
2024-05-09T09:01:57.041Z,79.72
2024-05-09T09:02:57.027Z,80.73
2024-05-09T09:03:57.086Z,78.56
2024-05-09T09:04:57.080Z,77.92
2024-05-09T09:05:57.039Z,76.80
2024-05-09T09:06:58.320Z,76.97
2024-05-09T09:07:57.046Z,73.02
2024-05-09T09:08:57.065Z,72.92
2024-05-09T09:09:57.159Z,73.73
2024-05-09T09:10:57.156Z,73.83
2024-05-09T09:11:57.126Z,73.39
2024-05-09T09:12:57.168Z,72.68
2024-05-09T09:13:57.142Z,72.38
2024-05-09T09:14:57.158Z,72.88
2024-05-09T09:15:57.406Z,71.44
2024-05-09T09:16:57.188Z,72.28
2024-05-09T09:17:57.334Z,70.18
2024-05-09T09:18:57.511Z,72.14
2024-05-09T09:19:57.312Z,73.36
2024-05-09T09:20:57.278Z,74.57
2024-05-09T09:21:57.326Z,72.45
2024-05-09T09:22:57.279Z,72.48
2024-05-09T09:23:57.289Z,73.29
2024-05-09T09:24:57.453Z,72.68
2024-05-09T09:25:57.344Z,72.08
2024-05-09T09:26:57.345Z,74.21
2024-05-09T09:27:57.404Z,74.88
2024-05-09T09:28:57.371Z,73.86
2024-05-09T09:29:57.400Z,77.17
2024-05-09T09:30:57.430Z,74.04
2024-05-09T09:31:57.403Z,73.69
2024-05-09T09:32:57.497Z,75.21
2024-05-09T09:33:57.859Z,70.83
2024-05-09T09:34:57.535Z,70.93
2024-05-09T09:35:57.463Z,69.92
2024-05-09T09:36:57.570Z,73.05
2024-05-09T09:37:57.514Z,67.29
2024-05-09T09:38:57.517Z,67.52
2024-05-09T09:39:57.658Z,67.52
2024-05-09T09:40:57.551Z,68.16
2024-05-09T09:41:57.560Z,71.80
2024-05-09T09:42:57.652Z,70.69
2024-05-09T09:43:57.589Z,70.18
2024-05-09T09:45:04.349Z,70.12
2024-05-09T09:45:57.646Z,72.04
2024-05-09T09:46:57.656Z,70.42
2024-05-09T09:47:57.722Z,73.97
2024-05-09T09:48:57.774Z,72.65
2024-05-09T09:49:57.720Z,70.42
2024-05-09T09:50:57.693Z,71.73
2024-05-09T09:51:57.735Z,68.80
2024-05-09T09:52:57.730Z,70.93
2024-05-09T09:53:57.751Z,71.94
2024-05-09T09:54:57.852Z,70.42
2024-05-09T09:55:57.789Z,71.33
2024-05-09T09:56:57.791Z,73.73
2024-05-09T09:57:57.845Z,72.72
2024-05-09T09:58:57.823Z,70.96
2024-05-09T09:59:57.873Z,70.02
2024-05-09T10:00:57.972Z,71.64
2024-05-09T10:01:58.043Z,68.37
2024-05-09T10:02:57.939Z,68.37
2024-05-09T10:03:58.102Z,69.34
2024-05-09T10:04:58.102Z,68.63
2024-05-09T10:05:58.048Z,68.00
2024-05-09T10:06:58.042Z,68.71
2024-05-09T10:07:57.989Z,67.63
2024-05-09T10:08:57.991Z,68.37
2024-05-09T10:09:58.061Z,69.07
2024-05-09T10:10:58.165Z,70.89
2024-05-09T10:12:00.365Z,71.23
2024-05-09T10:12:58.124Z,68.70
2024-05-09T10:13:58.067Z,68.90
2024-05-09T10:14:58.068Z,69.10
2024-05-09T10:15:58.117Z,67.49
2024-05-09T10:16:58.094Z,66.17
2024-05-09T10:17:58.205Z,65.50
2024-05-09T10:18:58.447Z,63.78
2024-05-09T10:19:58.208Z,64.38
2024-05-09T10:20:58.202Z,64.82
2024-05-09T10:21:58.199Z,65.12
2024-05-09T10:22:58.186Z,65.93
2024-05-09T10:23:58.192Z,67.05
2024-05-09T10:24:58.462Z,68.16
2024-05-09T10:25:58.212Z,68.77
2024-05-09T10:26:58.222Z,69.07
2024-05-09T10:27:58.404Z,69.88
2024-05-09T10:28:58.248Z,67.96
2024-05-09T10:29:58.269Z,70.69
2024-05-09T10:30:58.314Z,69.48
2024-05-09T10:31:58.314Z,69.78
2024-05-09T10:32:58.406Z,68.16
2024-05-09T10:33:58.539Z,68.36
2024-05-09T10:34:58.405Z,68.36
2024-05-09T10:35:58.365Z,66.54
2024-05-09T10:36:58.662Z,66.64
2024-05-09T10:37:58.391Z,61.20
2024-05-09T10:38:58.407Z,63.32
2024-05-09T10:39:58.468Z,63.83
2024-05-09T10:40:58.445Z,62.82
2024-05-09T10:41:58.450Z,63.83
2024-05-09T10:42:59.187Z,62.62
2024-05-09T10:43:58.484Z,64.34
2024-05-09T10:44:58.496Z,63.63
2024-05-09T10:45:58.569Z,63.53
2024-05-09T10:46:58.573Z,63.73
2024-05-09T10:47:58.718Z,63.53
2024-05-09T10:48:59.650Z,66.06
2024-05-09T10:49:58.628Z,64.44
2024-05-09T10:50:58.604Z,62.21
2024-05-09T10:51:58.653Z,63.43
2024-05-09T10:52:58.614Z,62.41
2024-05-09T10:53:58.631Z,63.73
2024-05-09T10:54:59.915Z,64.34
2024-05-09T10:55:58.676Z,66.06
2024-05-09T10:56:58.662Z,64.75
2024-05-09T10:57:58.707Z,64.75
2024-05-09T10:58:58.694Z,61.80
2024-05-09T10:59:58.730Z,64.54
2024-05-09T11:00:59.384Z,64.54
2024-05-09T11:01:58.797Z,65.53
2024-05-09T11:02:58.807Z,65.53
2024-05-09T11:03:58.911Z,63.20
2024-05-09T11:04:58.891Z,64.11
2024-05-09T11:05:58.839Z,63.70
2024-05-09T11:06:59.591Z,65.83
2024-05-09T11:07:58.832Z,63.17
2024-05-09T11:08:58.873Z,63.47
2024-05-09T11:09:58.931Z,64.89
2024-05-09T11:10:58.884Z,66.00
2024-05-09T11:11:58.936Z,66.30
2024-05-09T11:12:58.946Z,66.98
2024-05-09T11:13:58.968Z,65.06
2024-05-09T11:14:58.931Z,62.66
2024-05-09T11:15:59.157Z,62.86
2024-05-09T11:16:58.963Z,64.18
2024-05-09T11:17:59.060Z,64.65
2024-05-09T11:18:59.525Z,65.26
2024-05-09T11:19:59.133Z,62.02
2024-05-09T11:20:59.011Z,62.05
2024-05-09T11:21:59.046Z,62.84
2024-05-09T11:22:59.064Z,63.54
2024-05-09T11:23:59.087Z,65.56
2024-05-09T11:24:59.116Z,63.41
2024-05-09T11:25:59.338Z,61.69
2024-05-09T11:26:59.105Z,61.69
2024-05-09T11:27:59.231Z,60.58
2024-05-09T11:28:59.132Z,60.98
2024-05-09T11:29:59.149Z,64.83
2024-05-09T11:30:59.179Z,64.19
2024-05-09T11:31:59.191Z,62.67
2024-05-09T11:32:59.418Z,61.36
2024-05-09T11:33:59.302Z,60.35
2024-05-09T11:34:59.207Z,61.87
2024-05-09T11:35:59.237Z,63.89
2024-05-09T11:36:59.349Z,62.54
2024-05-09T11:37:59.284Z,63.65
2024-05-09T11:38:59.269Z,59.81
2024-05-09T11:39:59.376Z,59.00
2024-05-09T11:40:59.325Z,61.23
2024-05-09T11:41:59.363Z,59.61
2024-05-09T11:42:59.455Z,57.49
2024-05-09T11:43:59.373Z,57.29
2024-05-09T11:44:59.384Z,59.81
2024-05-09T11:45:59.463Z,60.22
2024-05-09T11:46:59.416Z,58.80
2024-05-09T11:47:59.509Z,58.20
2024-05-09T11:48:59.640Z,59.91
2024-05-09T11:49:59.735Z,61.43
2024-05-09T11:50:59.510Z,59.21
2024-05-09T11:51:59.577Z,59.51
2024-05-09T11:52:59.477Z,61.03
2024-05-09T11:53:59.497Z,61.40
2024-05-09T11:54:59.565Z,59.38
2024-05-09T11:55:59.544Z,58.78
2024-05-09T11:56:59.575Z,58.85
2024-05-09T11:57:59.627Z,60.26
2024-05-09T11:58:59.571Z,57.94
2024-05-09T11:59:59.586Z,57.71
2024-05-09T12:00:59.755Z,58.25
2024-05-09T12:01:59.742Z,57.54
2024-05-09T12:02:59.688Z,59.58
2024-05-09T12:03:59.956Z,59.45
2024-05-09T12:04:59.742Z,58.85
2024-05-09T12:05:59.793Z,56.52
2024-05-09T12:06:59.870Z,58.54
2024-05-09T12:07:59.703Z,57.84
2024-05-09T12:08:59.719Z,59.56
2024-05-09T12:09:59.768Z,57.84
2024-05-09T12:10:59.919Z,56.32
2024-05-09T12:11:59.775Z,58.12
2024-05-09T12:12:59.809Z,58.42
2024-05-09T12:13:59.791Z,59.22
2024-05-09T12:14:59.800Z,60.24
2024-05-09T12:15:59.875Z,61.14
2024-05-09T12:16:59.861Z,58.92
2024-05-09T12:18:02.804Z,60.00
2024-05-09T12:18:59.956Z,61.61
2024-05-09T12:19:59.872Z,59.90
2024-05-09T12:20:59.903Z,57.10
2024-05-09T12:21:59.920Z,57.43
2024-05-09T12:22:59.913Z,55.54
2024-05-09T12:23:59.931Z,57.16
2024-05-09T12:24:59.992Z,57.16
2024-05-09T12:25:59.980Z,56.25
2024-05-09T12:26:59.975Z,58.00
2024-05-09T12:28:00.509Z,60.52
2024-05-09T12:29:00.027Z,61.10
2024-05-09T12:30:00.049Z,60.80
2024-05-09T12:31:00.119Z,61.47
2024-05-09T12:32:00.083Z,63.23
2024-05-09T12:33:00.193Z,57.89
2024-05-09T12:34:00.213Z,57.15
2024-05-09T12:35:00.194Z,57.32
2024-05-09T12:36:00.177Z,59.82
2024-05-09T12:37:00.195Z,59.28
2024-05-09T12:38:00.392Z,58.71
2024-05-09T12:39:00.170Z,58.71
2024-05-09T12:40:00.287Z,58.81
2024-05-09T12:41:00.290Z,57.93
2024-05-09T12:42:00.215Z,57.45
2024-05-09T12:43:00.254Z,58.47
2024-05-09T12:44:00.239Z,60.48
2024-05-09T12:45:00.246Z,60.98
2024-05-09T12:46:00.416Z,57.78
2024-05-09T12:47:00.272Z,56.30
2024-05-09T12:48:00.495Z,57.84
2024-05-09T12:49:00.824Z,59.02
2024-05-09T12:50:00.409Z,58.52
2024-05-09T12:51:00.332Z,58.65
2024-05-09T12:52:00.517Z,57.54
2024-05-09T12:53:00.490Z,59.99
2024-05-09T12:54:00.405Z,60.29
2024-05-09T12:55:00.556Z,59.08
2024-05-09T12:56:02.523Z,60.80
2024-05-09T12:57:00.436Z,61.71
2024-05-09T12:58:00.561Z,60.39